createdAt,value
2023-01-26T00:01:15.886Z,43.00
2023-01-26T00:03:43.092Z,44.47
2023-01-26T00:06:12.315Z,45.40
2023-01-26T00:08:44.684Z,43.60
2023-01-26T00:11:14.884Z,43.95
2023-01-26T00:13:41.892Z,44.58
2023-01-26T00:16:13.295Z,44.53
2023-01-26T00:21:08.869Z,45.25
2023-01-26T00:23:35.940Z,42.97
2023-01-26T00:26:05.378Z,42.78
2023-01-26T00:28:32.087Z,41.67
2023-01-26T00:31:06.480Z,42.45
2023-01-26T00:33:33.488Z,45.08
2023-01-26T00:36:00.393Z,42.92
2023-01-26T00:38:27.311Z,43.28
2023-01-26T00:40:54.124Z,42.67
2023-01-26T00:43:20.835Z,40.67
2023-01-26T00:45:47.741Z,42.35
2023-01-26T00:48:14.576Z,40.90
2023-01-26T00:50:41.244Z,39.67
2023-01-26T00:53:09.799Z,40.85
2023-01-26T00:55:36.458Z,42.50
2023-01-26T00:58:05.033Z,40.40
2023-01-26T01:00:33.087Z,41.38
2023-01-26T01:03:00.112Z,41.15
2023-01-26T01:05:29.285Z,44.15
2023-01-26T01:07:56.201Z,42.42
2023-01-26T01:10:23.761Z,43.00
2023-01-26T01:12:50.475Z,42.60
2023-01-26T01:15:17.271Z,42.53
2023-01-26T01:17:43.924Z,42.88
2023-01-26T01:20:11.925Z,43.15
2023-01-26T01:22:41.162Z,42.80
2023-01-26T01:25:08.119Z,41.72
2023-01-26T01:27:34.843Z,42.65
2023-01-26T01:30:01.681Z,42.88
2023-01-26T01:32:28.418Z,45.55
2023-01-26T01:34:55.094Z,43.00
2023-01-26T01:37:21.750Z,45.05
2023-01-26T01:39:49.210Z,43.92
2023-01-26T01:42:15.966Z,43.10
2023-01-26T01:44:43.482Z,42.53
2023-01-26T01:47:23.097Z,42.33
2023-01-26T01:49:52.448Z,43.90
2023-01-26T01:52:29.760Z,43.55
2023-01-26T01:55:08.447Z,42.95
2023-01-26T01:57:47.607Z,43.50
2023-01-26T02:00:19.864Z,44.53
2023-01-26T02:03:14.383Z,42.25
2023-01-26T02:06:01.764Z,45.17
2023-01-26T02:08:43.065Z,46.65
2023-01-26T02:11:16.238Z,47.95
2023-01-26T02:16:10.779Z,41.30
2023-01-26T02:18:37.997Z,45.95
2023-01-26T02:21:08.069Z,43.00
2023-01-26T02:23:58.130Z,43.92
2023-01-26T02:26:33.703Z,40.00
2023-01-26T02:29:02.800Z,39.65
2023-01-26T02:31:30.705Z,41.88
2023-01-26T02:33:59.241Z,40.30
2023-01-26T02:36:29.081Z,38.60
2023-01-26T02:42:01.718Z,39.13
2023-01-26T02:44:30.019Z,38.70
2023-01-26T02:46:56.730Z,39.33
2023-01-26T02:49:41.913Z,39.60
2023-01-26T02:52:08.653Z,38.42
2023-01-26T02:54:54.123Z,40.55
2023-01-26T02:57:20.918Z,37.88
2023-01-26T02:59:47.604Z,39.80
2023-01-26T03:02:14.443Z,40.55
2023-01-26T03:04:41.993Z,40.88
2023-01-26T03:07:08.702Z,41.72
2023-01-26T03:09:35.366Z,39.78
2023-01-26T03:12:02.262Z,41.13
2023-01-26T03:14:28.986Z,41.55
2023-01-26T03:16:55.736Z,38.78
2023-01-26T03:19:44.454Z,39.08
2023-01-26T03:22:30.187Z,41.10
2023-01-26T03:25:30.410Z,38.13
2023-01-26T03:27:59.172Z,37.78
2023-01-26T03:30:25.911Z,36.92
2023-01-26T03:32:52.736Z,38.05
2023-01-26T03:35:22.442Z,38.70
2023-01-26T03:37:54.410Z,37.20
2023-01-26T03:40:52.494Z,35.95
2023-01-26T03:43:39.421Z,36.58
2023-01-26T03:46:26.048Z,34.08
2023-01-26T03:49:12.362Z,37.88
2023-01-26T03:51:58.110Z,37.53
2023-01-26T03:54:43.636Z,37.92
2023-01-26T03:57:10.311Z,38.08
2023-01-26T03:59:38.163Z,40.72
2023-01-26T04:02:29.142Z,36.88
2023-01-26T04:05:15.224Z,38.90
2023-01-26T04:08:04.578Z,39.10
2023-01-26T04:10:31.266Z,37.40
2023-01-26T04:13:18.008Z,38.95
2023-01-26T04:16:08.562Z,37.50
2023-01-26T04:18:54.848Z,42.13
2023-01-26T04:21:32.140Z,36.42
2023-01-26T04:24:01.640Z,40.30
2023-01-26T04:26:36.718Z,41.83
2023-01-26T04:29:09.451Z,40.13
2023-01-26T04:31:36.704Z,44.55
2023-01-26T04:34:05.545Z,44.15
2023-01-26T04:36:32.485Z,43.33
2023-01-26T04:39:01.326Z,46.42
2023-01-26T04:41:30.572Z,46.78
2023-01-26T04:44:02.789Z,45.03
2023-01-26T04:46:29.859Z,43.70
2023-01-26T04:48:56.524Z,44.08
2023-01-26T04:51:23.775Z,41.92
2023-01-26T04:53:51.321Z,40.80
2023-01-26T04:56:24.467Z,43.10
2023-01-26T04:58:53.690Z,40.03
2023-01-26T05:01:22.257Z,39.45
2023-01-26T05:03:49.216Z,40.20
2023-01-26T05:06:16.319Z,37.33
2023-01-26T05:08:45.402Z,36.15
2023-01-26T05:11:12.550Z,37.50
2023-01-26T05:13:53.306Z,34.80
2023-01-26T05:16:36.331Z,34.15
2023-01-26T05:19:26.029Z,35.28
2023-01-26T05:22:19.015Z,31.55
2023-01-26T05:25:06.122Z,33.13
2023-01-26T05:27:56.677Z,31.70
2023-01-26T05:30:24.535Z,33.50
2023-01-26T05:32:51.698Z,34.50
2023-01-26T05:35:18.432Z,34.22
2023-01-26T05:37:45.998Z,32.63
2023-01-26T05:40:14.091Z,33.78
2023-01-26T05:42:42.841Z,34.65
2023-01-26T05:45:19.776Z,31.77
2023-01-26T05:47:48.424Z,31.20
2023-01-26T05:50:15.847Z,29.95
2023-01-26T05:52:46.350Z,30.42
2023-01-26T05:55:13.638Z,29.77
2023-01-26T05:57:40.444Z,30.95
2023-01-26T06:00:10.709Z,29.25
2023-01-26T06:02:53.827Z,28.95
2023-01-26T06:07:49.933Z,28.08
2023-01-26T06:10:26.333Z,28.50
2023-01-26T06:13:25.425Z,26.02
2023-01-26T06:16:03.381Z,27.83
2023-01-26T06:18:30.821Z,27.60
2023-01-26T06:21:03.110Z,27.17
2023-01-26T06:23:30.056Z,26.02
2023-01-26T06:26:00.343Z,25.88
2023-01-26T06:28:29.945Z,27.40
2023-01-26T06:31:04.860Z,25.42
2023-01-26T06:33:36.695Z,26.02
2023-01-26T06:36:05.771Z,28.80
2023-01-26T06:38:33.244Z,26.08
2023-01-26T06:41:05.005Z,26.00
2023-01-26T06:43:33.640Z,27.25
2023-01-26T06:46:01.298Z,27.33
2023-01-26T06:48:30.313Z,26.38
2023-01-26T06:51:03.564Z,27.48
2023-01-26T06:53:34.400Z,25.55
2023-01-26T06:56:21.321Z,26.38
2023-01-26T06:59:10.863Z,30.70
2023-01-26T07:01:56.327Z,27.67
2023-01-26T07:04:27.481Z,26.35
2023-01-26T07:06:54.231Z,27.13
2023-01-26T07:09:20.920Z,29.00
2023-01-26T07:11:55.704Z,32.73
2023-01-26T07:14:22.356Z,30.63
2023-01-26T07:16:49.049Z,28.52
2023-01-26T07:19:15.776Z,28.98
2023-01-26T07:21:42.531Z,30.33
2023-01-26T07:24:09.687Z,29.02
2023-01-26T07:26:36.384Z,29.20
2023-01-26T07:29:03.111Z,29.15
2023-01-26T07:31:29.756Z,29.48
2023-01-26T07:33:56.540Z,30.88
2023-01-26T07:36:23.227Z,28.95
2023-01-26T07:38:49.945Z,30.40
2023-01-26T07:41:16.640Z,28.25
2023-01-26T07:43:43.369Z,28.60
2023-01-26T07:46:13.020Z,27.50
2023-01-26T07:48:41.789Z,27.60
2023-01-26T07:51:09.273Z,27.33
2023-01-26T07:53:39.443Z,32.03
2023-01-26T07:56:11.665Z,29.08
2023-01-26T07:58:38.698Z,27.50
2023-01-26T08:01:15.472Z,27.77
2023-01-26T08:03:45.392Z,27.25
2023-01-26T08:06:14.618Z,28.75
2023-01-26T08:08:43.203Z,21.43
2023-01-26T08:11:11.327Z,27.63
2023-01-26T08:13:38.713Z,32.15
2023-01-26T08:16:10.646Z,29.80
2023-01-26T08:18:44.811Z,30.05
2023-01-26T08:21:13.303Z,29.02
2023-01-26T08:23:40.258Z,30.15
2023-01-26T08:26:09.814Z,26.40
2023-01-26T08:28:37.154Z,27.98
2023-01-26T08:31:06.801Z,27.52
2023-01-26T08:33:34.541Z,29.20
2023-01-26T08:36:04.224Z,27.55
2023-01-26T08:38:32.178Z,29.58
2023-01-26T08:40:59.965Z,24.70
2023-01-26T08:43:27.082Z,26.58
2023-01-26T08:45:53.887Z,26.08
2023-01-26T08:48:20.881Z,23.75
2023-01-26T08:50:47.983Z,25.90
2023-01-26T08:53:14.915Z,26.88
2023-01-26T08:55:47.319Z,25.63
2023-01-26T08:59:11.988Z,24.38
2023-01-26T09:01:38.794Z,24.15
2023-01-26T09:04:05.656Z,25.73
2023-01-26T09:06:33.111Z,25.25
2023-01-26T09:08:59.831Z,26.13
2023-01-26T09:11:26.734Z,28.23
2023-01-26T09:13:56.456Z,27.90
2023-01-26T09:16:24.618Z,27.00
2023-01-26T09:18:52.926Z,24.48
2023-01-26T09:21:19.944Z,24.75
2023-01-26T09:23:46.851Z,25.75
2023-01-26T09:26:13.534Z,24.60
2023-01-26T09:28:40.250Z,25.55
2023-01-26T09:31:10.797Z,22.50
2023-01-26T09:33:37.681Z,24.67
2023-01-26T09:36:10.468Z,23.73
2023-01-26T09:38:38.200Z,23.33
2023-01-26T09:41:11.106Z,22.15
2023-01-26T09:43:48.823Z,21.08
2023-01-26T09:46:24.607Z,20.50
2023-01-26T09:49:00.720Z,20.92
2023-01-26T09:51:35.302Z,19.25
2023-01-26T09:54:29.343Z,20.58
2023-01-26T09:56:56.284Z,19.17
2023-01-26T09:59:42.812Z,17.67
2023-01-26T10:02:20.979Z,16.00
2023-01-26T10:04:52.515Z,16.67
2023-01-26T10:07:19.964Z,16.20
2023-01-26T10:09:51.497Z,13.95
2023-01-26T10:12:18.056Z,14.98
2023-01-26T10:14:57.449Z,15.48
2023-01-26T10:17:54.927Z,13.63
2023-01-26T10:20:29.846Z,12.93
2023-01-26T10:23:05.515Z,14.10
2023-01-26T10:25:37.827Z,13.88
2023-01-26T10:28:16.041Z,13.05
2023-01-26T10:30:45.290Z,12.40
2023-01-26T10:33:32.603Z,14.25
2023-01-26T10:36:01.261Z,12.50
2023-01-26T10:38:34.092Z,14.25
2023-01-26T10:41:03.394Z,13.35
2023-01-26T10:43:36.799Z,14.27
2023-01-26T10:46:04.637Z,13.10
2023-01-26T10:48:31.864Z,11.32
2023-01-26T10:51:16.202Z,11.85
2023-01-26T10:53:42.818Z,12.05
2023-01-26T10:56:14.820Z,10.82
2023-01-26T10:58:46.556Z,10.60
2023-01-26T11:01:18.370Z,11.07
2023-01-26T11:04:05.889Z,12.32
2023-01-26T11:06:33.170Z,11.70
2023-01-26T11:09:19.028Z,11.35
2023-01-26T11:12:04.977Z,10.57
2023-01-26T11:14:33.007Z,10.98
2023-01-26T11:17:22.389Z,11.80
2023-01-26T11:20:33.426Z,11.77
2023-01-26T11:23:10.119Z,10.52
2023-01-26T11:25:57.341Z,10.77
2023-01-26T11:28:52.035Z,11.10
2023-01-26T11:31:40.319Z,11.20
2023-01-26T11:34:30.892Z,12.25
2023-01-26T11:37:33.728Z,11.45
2023-01-26T11:40:10.972Z,11.45
2023-01-26T11:42:50.589Z,12.13
2023-01-26T11:45:56.895Z,12.05
2023-01-26T11:48:38.754Z,11.40
2023-01-26T11:51:20.529Z,11.82
2023-01-26T11:53:56.181Z,11.95
2023-01-26T11:56:35.090Z,12.43
2023-01-26T11:59:14.092Z,11.35
2023-01-26T12:01:47.297Z,13.40
2023-01-26T12:04:21.788Z,14.70
2023-01-26T12:07:01.981Z,13.55
2023-01-26T12:09:46.111Z,13.27
2023-01-26T12:12:15.417Z,14.70
2023-01-26T12:14:45.206Z,15.05
2023-01-26T12:17:36.058Z,15.60
2023-01-26T12:20:35.841Z,13.93
2023-01-26T12:23:08.017Z,14.05
2023-01-26T12:25:41.309Z,15.85
2023-01-26T12:28:32.755Z,16.77
2023-01-26T12:31:27.294Z,14.95
2023-01-26T12:33:56.309Z,15.23
2023-01-26T12:36:50.888Z,15.73
2023-01-26T12:39:37.034Z,15.70
2023-01-26T12:42:16.980Z,15.48
2023-01-26T12:44:48.805Z,15.55
2023-01-26T12:47:27.154Z,15.65
2023-01-26T12:49:59.151Z,16.42
2023-01-26T12:52:28.720Z,14.30
2023-01-26T12:55:19.747Z,16.23
2023-01-26T12:58:14.618Z,15.43
2023-01-26T13:00:52.640Z,15.40
2023-01-26T13:03:30.585Z,16.48
2023-01-26T13:06:09.707Z,15.75
2023-01-26T13:08:36.268Z,16.67
2023-01-26T13:11:06.579Z,17.13
2023-01-26T13:13:36.137Z,17.95
2023-01-26T13:16:18.131Z,18.75
2023-01-26T13:18:49.365Z,17.75
2023-01-26T13:21:29.025Z,18.73
2023-01-26T13:23:55.775Z,19.23
2023-01-26T13:26:41.737Z,19.23
2023-01-26T13:29:32.948Z,19.05
2023-01-26T13:32:08.689Z,20.52
2023-01-26T13:34:46.015Z,20.52
2023-01-26T13:37:34.938Z,20.63
2023-01-26T13:40:14.565Z,20.90
2023-01-26T13:42:55.066Z,19.35
2023-01-26T13:45:47.155Z,20.80
2023-01-26T13:48:20.604Z,20.35
2023-01-26T13:50:51.545Z,20.90
2023-01-26T13:53:43.622Z,21.88
2023-01-26T13:56:31.195Z,19.50
2023-01-26T13:59:06.963Z,19.30
2023-01-26T14:01:33.778Z,18.15
2023-01-26T14:04:08.076Z,18.73
2023-01-26T14:06:37.257Z,18.77
2023-01-26T14:09:06.453Z,18.25
2023-01-26T14:11:34.260Z,17.35
2023-01-26T14:14:02.407Z,17.38
2023-01-26T14:16:32.271Z,18.98
2023-01-26T14:19:12.925Z,19.67
2023-01-26T14:21:49.994Z,19.75
2023-01-26T14:24:17.886Z,18.27
2023-01-26T14:26:44.758Z,18.77
2023-01-26T14:29:18.710Z,20.73
2023-01-26T14:31:47.347Z,18.10
2023-01-26T14:34:27.163Z,17.38
2023-01-26T14:37:17.675Z,18.85
2023-01-26T14:39:47.716Z,18.15
2023-01-26T14:42:19.617Z,18.38
2023-01-26T14:44:46.934Z,18.50
2023-01-26T14:47:24.743Z,18.50
2023-01-26T14:50:06.101Z,18.95
2023-01-26T14:52:39.667Z,19.70
2023-01-26T14:55:13.525Z,17.70
2023-01-26T14:57:40.460Z,16.50
2023-01-26T15:00:18.138Z,16.55
2023-01-26T15:02:48.282Z,16.67
2023-01-26T15:05:17.914Z,16.08
2023-01-26T15:07:45.940Z,17.52
2023-01-26T15:10:40.751Z,17.50
2023-01-26T15:13:10.095Z,15.20
2023-01-26T15:15:42.752Z,15.70
2023-01-26T15:18:21.814Z,14.43
2023-01-26T15:21:09.459Z,14.00
2023-01-26T15:23:40.483Z,14.68
2023-01-26T15:26:34.179Z,13.27
2023-01-26T15:29:04.619Z,14.05
2023-01-26T15:31:39.991Z,14.43
2023-01-26T15:34:26.308Z,15.45
2023-01-26T15:36:53.149Z,12.98
2023-01-26T15:39:20.530Z,13.02
2023-01-26T15:42:12.286Z,14.55
2023-01-26T15:44:39.546Z,13.75
2023-01-26T15:47:10.606Z,14.30
2023-01-26T15:49:37.750Z,13.52
2023-01-26T15:52:12.241Z,12.63
2023-01-26T15:54:38.837Z,12.80
2023-01-26T15:57:05.581Z,12.20
2023-01-26T15:59:32.326Z,12.52
2023-01-26T16:01:58.985Z,13.13
2023-01-26T16:04:27.754Z,13.85
2023-01-26T16:06:54.707Z,11.98
2023-01-26T16:09:21.334Z,12.73
2023-01-26T16:11:51.620Z,12.10
2023-01-26T16:14:18.756Z,12.32
2023-01-26T16:16:45.471Z,11.82
2023-01-26T16:19:20.510Z,13.32
2023-01-26T16:21:53.238Z,12.50
2023-01-26T16:24:19.872Z,12.10
2023-01-26T16:26:46.561Z,14.60
2023-01-26T16:29:13.189Z,14.00
2023-01-26T16:31:41.310Z,13.50
2023-01-26T16:34:10.015Z,15.32
2023-01-26T16:36:36.679Z,13.80
2023-01-26T16:39:03.398Z,14.90
2023-01-26T16:41:32.319Z,13.88
2023-01-26T16:44:01.053Z,13.85
2023-01-26T16:46:29.246Z,15.30
2023-01-26T16:48:56.668Z,16.17
2023-01-26T16:51:32.321Z,13.82
2023-01-26T16:53:59.040Z,14.38
2023-01-26T16:56:25.840Z,16.40
2023-01-26T16:58:52.881Z,15.50
2023-01-26T17:01:24.627Z,17.60
2023-01-26T17:03:51.784Z,17.30
2023-01-26T17:06:19.544Z,21.98
2023-01-26T17:08:47.186Z,18.42
2023-01-26T17:11:23.375Z,20.10
2023-01-26T17:13:50.438Z,19.60
2023-01-26T17:16:25.236Z,20.25
2023-01-26T17:18:52.527Z,20.67
2023-01-26T17:21:20.304Z,19.67
2023-01-26T17:23:54.457Z,18.05
2023-01-26T17:26:22.184Z,19.95
2023-01-26T17:28:53.027Z,21.65
2023-01-26T17:31:21.098Z,20.20
2023-01-26T17:33:49.761Z,19.25
2023-01-26T17:36:17.591Z,19.77
2023-01-26T17:38:44.491Z,21.10
2023-01-26T17:41:11.357Z,24.48
2023-01-26T17:43:38.068Z,21.67
2023-01-26T17:46:13.136Z,23.75
2023-01-26T17:48:42.607Z,23.23
2023-01-26T17:51:19.113Z,23.42
2023-01-26T17:53:49.371Z,23.92
2023-01-26T17:56:18.527Z,21.95
2023-01-26T17:58:50.753Z,24.45
2023-01-26T18:01:18.707Z,24.10
2023-01-26T18:03:45.503Z,23.75
2023-01-26T18:06:12.643Z,21.70
2023-01-26T18:08:40.068Z,21.52
2023-01-26T18:11:12.966Z,22.23
2023-01-26T18:13:40.049Z,24.98
2023-01-26T18:16:08.837Z,23.02
2023-01-26T18:18:35.776Z,25.48
2023-01-26T18:21:13.173Z,20.15
2023-01-26T18:23:39.949Z,23.05
2023-01-26T18:26:07.777Z,23.35
2023-01-26T18:28:34.546Z,20.50
2023-01-26T18:31:28.075Z,21.52
2023-01-26T18:33:58.907Z,21.05
2023-01-26T18:36:26.577Z,20.03
2023-01-26T18:38:56.140Z,19.10
2023-01-26T18:41:24.242Z,18.48
2023-01-26T18:43:52.646Z,19.02
2023-01-26T18:46:20.630Z,17.95
2023-01-26T18:48:47.293Z,18.63
2023-01-26T18:51:14.221Z,15.20
2023-01-26T18:53:41.064Z,14.82
2023-01-26T18:56:10.644Z,13.13
2023-01-26T18:58:38.965Z,12.48
2023-01-26T19:01:09.812Z,11.73
2023-01-26T19:03:41.690Z,11.02
2023-01-26T19:06:09.789Z,10.20
2023-01-26T19:08:36.556Z,9.95
2023-01-26T19:11:05.299Z,7.82
2023-01-26T19:13:32.105Z,8.35
2023-01-26T19:15:58.824Z,6.70
2023-01-26T19:18:25.504Z,5.88
2023-01-26T19:20:56.693Z,5.75
2023-01-26T19:23:23.375Z,6.75
2023-01-26T19:25:50.106Z,4.93
2023-01-26T19:28:17.243Z,6.65
2023-01-26T19:30:44.332Z,5.05
2023-01-26T19:33:28.724Z,5.85
2023-01-26T19:35:56.265Z,4.72
2023-01-26T19:38:23.499Z,5.60
2023-01-26T19:40:51.959Z,6.05
2023-01-26T19:43:19.939Z,5.32
2023-01-26T19:45:54.653Z,5.63
2023-01-26T19:48:23.884Z,5.20
2023-01-26T19:51:03.292Z,6.15
2023-01-26T19:53:35.894Z,4.78
2023-01-26T19:56:12.950Z,5.35
2023-01-26T19:58:39.798Z,4.85
2023-01-26T20:01:10.228Z,5.20
2023-01-26T20:03:38.266Z,5.00
2023-01-26T20:06:06.483Z,5.32
2023-01-26T20:08:33.357Z,5.10
2023-01-26T20:11:04.917Z,5.60
2023-01-26T20:13:32.521Z,5.57
2023-01-26T20:15:59.527Z,4.75
2023-01-26T20:18:26.543Z,5.00
2023-01-26T20:20:55.882Z,5.13
2023-01-26T20:23:23.659Z,5.50
2023-01-26T20:25:51.603Z,4.90
2023-01-26T20:28:19.392Z,4.85
2023-01-26T20:30:46.308Z,4.82
2023-01-26T20:33:13.247Z,4.45
2023-01-26T20:35:42.487Z,4.85
2023-01-26T20:38:09.383Z,5.00
2023-01-26T20:40:38.790Z,4.53
2023-01-26T20:43:05.835Z,4.80
2023-01-26T20:45:32.720Z,3.85
2023-01-26T20:47:59.497Z,3.95
2023-01-26T20:50:26.371Z,3.75
2023-01-26T20:52:53.096Z,3.88
2023-01-26T20:55:20.275Z,3.30
2023-01-26T20:57:46.950Z,3.85
2023-01-26T21:00:14.428Z,4.22
2023-01-26T21:02:41.373Z,3.70
2023-01-26T21:05:08.506Z,3.72
2023-01-26T21:07:36.316Z,4.00
2023-01-26T21:10:03.450Z,4.43
2023-01-26T21:12:30.292Z,3.60
2023-01-26T21:14:56.906Z,3.90
2023-01-26T21:17:24.382Z,3.42
2023-01-26T21:19:51.085Z,3.67
2023-01-26T21:22:17.772Z,3.88
2023-01-26T21:24:44.857Z,4.40
2023-01-26T21:27:11.590Z,3.75
2023-01-26T21:29:40.464Z,3.38
2023-01-26T21:32:08.166Z,4.57
2023-01-26T21:34:34.862Z,4.32
2023-01-26T21:37:01.600Z,4.03
2023-01-26T21:39:28.408Z,3.60
2023-01-26T21:41:55.752Z,4.20
2023-01-26T21:44:30.916Z,3.97
2023-01-26T21:46:59.790Z,4.82
2023-01-26T21:49:28.559Z,3.60
2023-01-26T21:52:14.704Z,3.75
2023-01-26T21:54:41.827Z,4.60
2023-01-26T21:57:29.625Z,4.00
2023-01-26T21:59:57.039Z,3.65
2023-01-26T22:02:24.110Z,3.20
2023-01-26T22:04:50.820Z,3.70
2023-01-26T22:07:17.644Z,3.33
2023-01-26T22:09:44.393Z,3.50
2023-01-26T22:12:11.241Z,3.58
2023-01-26T22:14:38.072Z,3.13
2023-01-26T22:17:04.790Z,3.45
2023-01-26T22:19:31.661Z,4.07
2023-01-26T22:21:58.356Z,2.60
2023-01-26T22:24:25.073Z,3.28
2023-01-26T22:26:51.843Z,3.38
2023-01-26T22:29:18.574Z,2.58
2023-01-26T22:31:45.291Z,2.50
2023-01-26T22:34:12.121Z,5.45
2023-01-26T22:36:41.131Z,2.60
2023-01-26T22:39:09.138Z,3.53
2023-01-26T22:41:44.463Z,3.15
2023-01-26T22:44:11.183Z,2.88
2023-01-26T22:46:37.863Z,4.60
2023-01-26T22:49:04.930Z,3.05
2023-01-26T22:51:33.114Z,3.20
2023-01-26T22:53:59.741Z,3.72
2023-01-26T22:56:27.099Z,2.80
2023-01-26T22:59:00.301Z,3.08
2023-01-26T23:01:32.551Z,2.80
2023-01-26T23:04:00.506Z,3.58
2023-01-26T23:06:30.026Z,2.45
2023-01-26T23:08:58.216Z,2.40
2023-01-26T23:11:27.990Z,3.72
2023-01-26T23:13:56.323Z,2.88
2023-01-26T23:16:24.616Z,3.38
2023-01-26T23:18:53.186Z,4.10
2023-01-26T23:21:22.072Z,3.95
2023-01-26T23:23:48.828Z,2.80
2023-01-26T23:26:16.089Z,2.88
2023-01-26T23:28:44.207Z,2.75
2023-01-26T23:31:12.223Z,2.67
2023-01-26T23:33:40.976Z,2.83
2023-01-26T23:36:09.190Z,3.10
2023-01-26T23:38:36.116Z,2.83
2023-01-26T23:41:08.349Z,3.25
2023-01-26T23:43:35.105Z,2.70
2023-01-26T23:46:01.840Z,3.00
2023-01-26T23:48:28.453Z,3.50
2023-01-26T23:50:59.978Z,3.33
2023-01-26T23:53:27.555Z,3.47
2023-01-26T23:55:54.592Z,3.42
2023-01-26T23:58:21.335Z,3.40
